aviador You're here:

KCDW Decoded Metar

CALDWELL in NJ, USA
Report Time2018-02-22 05:53:00
UTC Time2018-02-22 06:44:55
Flight Rules vfr VFR
Wind020° at 04 kt
W.Decomp.*RWY 04: 4.0 kt HW 0.5 kt LCW
RWY 10: 1.6 kt HW 3.7 kt LCW
W.Rank020° ranks 30
Current wind is below 020° avg. (4.6)
Visibility9999 m
Phenomena:N/A
Clouds:Overcast 048 Hf
Expected CloudBase > 4,000 ft AGL from Temp-Dew spread
Ceiling4,800 ft
Temp12°C (ISA -3)
Dew Point02°C (51% RH)
AAT8.9°C
QNH1031 hPa
Density Alt-604 ft
Elevation210 ft
Report Wrong Elevation
Raw Report
METAR KCDW 220553Z 02004KT 10SM OVC048 12/02 A3045 RMK AO2 SLP316 60013
T01220022 10222 20122 53019=

Extra information for KCDW:More info

Metar Taf Metar & Taf Last 4 Metars F.Rules Stats Wind Profile Meteogram Temp Stats Airport Information Weather charts Add Link Nearby VenuesMetar ALERT Operation Metar Decoded Social comments

AIRNAV info for KCDW